Time;durP1;ratioP1;P1;durP2;ratioP2;P2;SDS_P1;SDS_P2;PMS_P1;PMS_P2;Temp;Humidity;BMP_temperature;BMP_pressure;BME280_temperature;BME280_humidity;BME280_pressure;Samples;Min_cycle;Max_cycle;Signal;HPM_P1;HPM_P2
2024/04/09 00:02:07;;;;;;;5.90;2.10;;;;;;;6.25;68.67;101036.16;5378420;26;20289;-69
2024/04/09 00:04:33;;;;;;;9.00;2.40;;;;;;;6.24;69.12;101035.31;5376305;26;20226;-68
2024/04/09 00:07:04;;;;;;;7.37;1.90;;;;;;;6.22;68.91;101042.22;5382521;26;20800;-69
2024/04/09 00:09:30;;;;;;;7.67;2.40;;;;;;;6.19;68.89;101037.91;5382630;26;20226;-68
2024/04/09 00:11:59;;;;;;;6.10;2.10;;;;;;;6.17;68.90;101036.16;5382526;26;20699;-68
2024/04/09 00:14:25;;;;;;;3.80;2.23;;;;;;;6.13;68.92;101048.28;5372235;26;20240;-68
2024/04/09 00:16:55;;;;;;;2.77;2.10;;;;;;;6.13;69.44;101048.28;5382268;26;20695;-68
2024/04/09 00:19:23;;;;;;;4.93;2.10;;;;;;;6.10;68.99;101039.66;5382661;26;20726;-75
2024/04/09 00:21:54;;;;;;;3.93;1.80;;;;;;;6.07;69.41;101031.84;5374187;26;20559;-76
2024/04/09 00:24:23;;;;;;;5.63;2.30;;;;;;;6.04;69.03;101029.25;5382399;26;20226;-76
2024/04/09 00:26:51;;;;;;;4.20;1.80;;;;;;;6.03;69.08;101030.09;5382566;26;20210;-76
2024/04/09 00:29:17;;;;;;;1.60;1.50;;;;;;;6.01;69.02;101037.91;5382308;26;20222;-76
2024/04/09 00:31:46;;;;;;;3.37;1.90;;;;;;;5.98;69.15;101051.75;5382134;26;20691;-76
2024/04/09 00:34:12;;;;;;;3.80;2.00;;;;;;;5.97;69.27;101050.03;5382201;26;20751;-75
2024/04/09 00:36:41;;;;;;;4.23;2.03;;;;;;;5.96;69.30;101048.28;5382225;26;20744;-76
2024/04/09 00:39:19;;;;;;;3.33;1.87;;;;;;;5.94;69.83;101052.63;5382119;26;20260;-75
2024/04/09 00:41:51;;;;;;;3.13;1.87;;;;;;;5.90;69.58;101032.72;5375721;26;20293;-76
2024/04/09 00:44:17;;;;;;;4.27;1.77;;;;;;;5.91;69.27;101038.75;5382152;26;20260;-75
2024/04/09 00:46:47;;;;;;;6.00;2.00;;;;;;;5.90;69.77;101040.50;5381979;26;20703;-75
2024/04/09 00:49:13;;;;;;;3.80;2.10;;;;;;;5.88;69.80;101046.56;5382226;26;20273;-76
2024/04/09 00:51:44;;;;;;;2.80;2.33;;;;;;;5.88;69.51;101051.75;5381835;26;20218;-75
2024/04/09 00:54:11;;;;;;;3.77;1.60;;;;;;;5.87;69.45;101056.06;5382070;26;20809;-75
2024/04/09 00:56:43;;;;;;;2.13;1.80;;;;;;;5.85;69.46;101052.59;5381998;26;20222;-76
2024/04/09 00:59:12;;;;;;;3.00;1.87;;;;;;;5.83;69.83;101045.66;5379527;26;20273;-76
2024/04/09 01:01:42;;;;;;;2.67;1.67;;;;;;;5.81;69.81;101048.28;5381818;26;20222;-76
2024/04/09 01:04:08;;;;;;;3.60;1.70;;;;;;;5.80;69.94;101054.31;5379681;26;20222;-76
2024/04/09 01:06:38;;;;;;;2.57;1.60;;;;;;;5.79;69.62;101056.94;5382028;26;20255;-76
2024/04/09 01:09:04;;;;;;;2.00;1.50;;;;;;;5.78;70.04;101050.00;5381856;26;20222;-76
2024/04/09 01:11:33;;;;;;;3.00;1.80;;;;;;;5.75;69.53;101053.47;5381278;26;20244;-68
2024/04/09 01:13:58;;;;;;;2.40;1.80;;;;;;;5.74;69.90;101059.50;5381762;26;20222;-68
2024/04/09 01:16:30;;;;;;;2.53;1.63;;;;;;;5.71;69.70;101055.16;5381661;26;20613;-68
2024/04/09 01:18:55;;;;;;;3.83;1.90;;;;;;;5.70;69.72;101056.03;5381741;26;20350;-68
2024/04/09 01:21:24;;;;;;;2.17;1.57;;;;;;;5.67;69.87;101056.03;5381603;26;20688;-69
2024/04/09 01:23:53;;;;;;;3.20;1.67;;;;;;;5.68;69.72;101055.16;5371486;26;20218;-68
2024/04/09 01:26:23;;;;;;;3.50;1.60;;;;;;;5.66;69.93;101045.66;5381392;26;20222;-68
2024/04/09 01:28:49;;;;;;;5.43;2.10;;;;;;;5.65;70.29;101046.53;5378203;26;20226;-68
2024/04/09 01:31:18;;;;;;;3.00;2.00;;;;;;;5.63;69.95;101038.75;5381301;26;20335;-76
2024/04/09 01:33:45;;;;;;;4.73;2.30;;;;;;;5.63;70.17;101048.22;5381225;26;20265;-76
2024/04/09 01:36:14;;;;;;;2.57;2.00;;;;;;;5.62;69.85;101051.72;5381332;26;20263;-76
2024/04/09 01:38:40;;;;;;;4.67;2.00;;;;;;;5.61;69.95;101055.16;5381207;26;20293;-75
2024/04/09 01:41:11;;;;;;;2.97;1.70;;;;;;;5.59;70.44;101047.38;5369210;26;20222;-76
2024/04/09 01:43:37;;;;;;;3.57;1.73;;;;;;;5.59;70.29;101054.28;5381337;26;20265;-75
2024/04/09 01:46:06;;;;;;;3.77;2.00;;;;;;;5.59;70.08;101056.88;5381164;26;20310;-76
2024/04/09 01:48:32;;;;;;;1.83;1.70;;;;;;;5.57;70.32;101046.50;5368727;26;20218;-76
2024/04/09 01:51:02;;;;;;;4.00;1.90;;;;;;;5.57;70.63;101040.44;5381102;26;20256;-76
2024/04/09 01:53:28;;;;;;;2.40;1.90;;;;;;;5.56;70.37;101041.31;5376272;26;20775;-76
2024/04/09 01:56:01;;;;;;;3.80;1.73;;;;;;;5.55;70.26;101048.25;5381233;26;20327;-76
2024/04/09 01:58:30;;;;;;;3.83;1.87;;;;;;;5.55;70.75;101048.25;5371726;26;20293;-76
2024/04/09 02:00:59;;;;;;;5.27;2.17;;;;;;;5.55;70.66;101060.34;5381000;26;20297;-76
2024/04/09 02:03:26;;;;;;;3.17;1.77;;;;;;;5.50;70.94;101057.75;5376497;26;20774;-76
2024/04/09 02:05:54;;;;;;;2.57;1.70;;;;;;;5.53;70.94;101061.19;5380944;26;20315;-76
2024/04/09 02:08:20;;;;;;;2.20;2.00;;;;;;;5.53;70.51;101068.97;5380701;26;20277;-75
2024/04/09 02:10:50;;;;;;;3.53;2.03;;;;;;;5.53;70.71;101066.38;5381192;26;20323;-76
2024/04/09 02:13:16;;;;;;;2.80;2.00;;;;;;;5.51;70.95;101068.09;5374353;26;20261;-76
2024/04/09 02:15:48;;;;;;;3.77;2.07;;;;;;;5.52;70.89;101063.81;5380687;26;20711;-76
2024/04/09 02:18:14;;;;;;;3.63;2.30;;;;;;;5.52;70.97;101074.19;5383305;26;20218;-76
2024/04/09 02:20:45;;;;;;;2.13;1.83;;;;;;;5.51;70.93;101075.03;5384080;26;20218;-75
2024/04/09 02:23:11;;;;;;;3.73;2.40;;;;;;;5.51;70.86;101072.44;5384059;26;20222;-74
2024/04/09 02:25:42;;;;;;;4.30;2.20;;;;;;;5.51;70.98;101070.69;5384336;26;20225;-74
2024/04/09 02:28:08;;;;;;;3.77;2.47;;;;;;;5.52;71.01;101082.84;5383551;26;20221;-75
2024/04/09 02:30:37;;;;;;;4.63;2.00;;;;;;;5.49;71.08;101082.81;5383748;26;20350;-74
2024/04/09 02:33:05;;;;;;;4.00;2.27;;;;;;;5.51;70.83;101078.47;5380119;26;20285;-75
2024/04/09 02:35:34;;;;;;;2.50;2.30;;;;;;;5.50;71.25;101074.16;5383832;26;20300;-75
2024/04/09 02:38:00;;;;;;;3.80;2.60;;;;;;;5.50;70.77;101074.16;5379811;26;20257;-75
2024/04/09 02:40:29;;;;;;;5.10;2.73;;;;;;;5.50;70.71;101076.75;5384049;26;20218;-72
2024/04/09 02:42:56;;;;;;;4.97;2.70;;;;;;;5.49;70.85;101071.59;5383991;26;20274;-72
2024/04/09 02:45:24;;;;;;;2.53;2.20;;;;;;;5.49;70.98;101077.63;5382887;26;20318;-72
2024/04/09 02:47:51;;;;;;;4.33;2.20;;;;;;;5.50;70.77;101068.97;5383665;26;20318;-72
2024/04/09 02:50:22;;;;;;;3.77;2.63;;;;;;;5.50;70.82;101078.50;5383636;26;20323;-72
2024/04/09 02:52:49;;;;;;;3.17;2.57;;;;;;;5.50;70.84;101081.09;5381654;26;20222;-72
2024/04/09 02:55:20;;;;;;;2.77;2.03;;;;;;;5.49;71.15;101074.19;5383940;26;20218;-72
2024/04/09 02:57:47;;;;;;;3.27;2.47;;;;;;;5.46;71.20;101075.03;5383432;26;20334;-72
2024/04/09 03:00:19;;;;;;;3.63;2.57;;;;;;;5.45;71.28;101072.41;5383833;26;20253;-73
2024/04/09 03:02:50;;;;;;;3.23;2.20;;;;;;;5.45;71.08;101077.59;5382067;26;20230;-72
2024/04/09 03:05:18;;;;;;;3.30;2.30;;;;;;;5.45;71.21;101069.81;5383490;26;20217;-73
2024/04/09 03:07:47;;;;;;;3.90;2.30;;;;;;;5.44;71.37;101068.97;5383047;26;20356;-73
2024/04/09 03:10:16;;;;;;;6.07;2.70;;;;;;;5.44;71.37;101074.16;5383337;26;20260;-73
2024/04/09 03:12:42;;;;;;;2.40;2.20;;;;;;;5.44;71.17;101083.66;5383124;26;20222;-73
2024/04/09 03:15:11;;;;;;;6.07;2.50;;;;;;;5.39;71.03;101069.81;5383163;26;20225;-73
2024/04/09 03:17:40;;;;;;;3.40;2.17;;;;;;;5.43;71.48;101075.03;5376597;26;20343;-73
2024/04/09 03:20:10;;;;;;;2.90;2.03;;;;;;;5.43;71.70;101077.63;5382962;26;20814;-73
2024/04/09 03:22:36;;;;;;;5.10;2.40;;;;;;;5.44;71.57;101076.75;5383016;26;20260;-73
2024/04/09 03:25:08;;;;;;;3.47;2.30;;;;;;;5.43;71.65;101067.25;5382643;26;20230;-73
2024/04/09 03:27:34;;;;;;;3.93;2.27;;;;;;;5.43;71.43;101069.84;5382756;26;20265;-73
2024/04/09 03:30:04;;;;;;;3.23;2.23;;;;;;;5.43;71.48;101068.94;5381046;26;20242;-69
2024/04/09 03:32:30;;;;;;;4.03;2.43;;;;;;;5.43;71.63;101072.44;5382159;26;20225;-69
2024/04/09 03:34:59;;;;;;;2.53;2.30;;;;;;;5.44;71.81;101078.47;5382761;26;20260;-68
2024/04/09 03:37:25;;;;;;;3.10;2.10;;;;;;;5.43;71.63;101079.31;5382729;26;20256;-69
2024/04/09 03:39:53;;;;;;;4.77;2.37;;;;;;;5.41;71.65;101081.94;5382941;26;20226;-69
2024/04/09 03:42:25;;;;;;;3.90;2.10;;;;;;;5.43;71.71;101085.41;5377707;26;20277;-68
2024/04/09 03:44:53;;;;;;;4.20;2.40;;;;;;;5.41;71.75;101079.34;5375464;26;20226;-69
2024/04/09 03:47:19;;;;;;;3.17;2.27;;;;;;;5.42;71.54;101080.19;5378402;26;20727;-69
2024/04/09 03:49:48;;;;;;;2.30;2.10;;;;;;;5.42;71.46;101075.88;5382514;26;20222;-68
2024/04/09 03:52:14;;;;;;;3.90;1.87;;;;;;;5.41;71.89;101081.06;5382327;26;20707;-69
2024/04/09 03:54:43;;;;;;;3.07;1.90;;;;;;;5.42;71.84;101070.69;5382438;26;20344;-69
2024/04/09 03:57:09;;;;;;;4.23;2.40;;;;;;;5.42;71.45;101070.69;5380009;26;20285;-69
2024/04/09 03:59:40;;;;;;;3.77;1.77;;;;;;;5.41;71.65;101065.50;5382439;26;20561;-69
2024/04/09 04:02:06;;;;;;;4.73;2.10;;;;;;;5.38;71.79;101058.56;5378645;26;20297;-69
2024/04/09 04:04:34;;;;;;;4.37;1.90;;;;;;;5.43;71.88;101062.06;5382290;26;20335;-69
2024/04/09 04:07:00;;;;;;;1.90;1.60;;;;;;;5.42;71.77;101065.50;5382243;26;20327;-69
2024/04/09 04:09:29;;;;;;;4.60;1.90;;;;;;;5.44;71.98;101049.94;5370976;26;20646;-69
2024/04/09 04:11:54;;;;;;;3.83;2.23;;;;;;;5.44;72.42;101063.78;5382187;26;20258;-69
2024/04/09 04:14:23;;;;;;;2.17;1.70;;;;;;;5.45;71.81;101064.63;5382071;26;20625;-68
2024/04/09 04:16:52;;;;;;;2.07;1.70;;;;;;;5.45;72.13;101070.69;5380756;26;20226;-68
2024/04/09 04:19:20;;;;;;;4.00;2.33;;;;;;;5.47;72.44;101068.09;5379488;26;20229;-69
2024/04/09 04:21:46;;;;;;;2.80;2.40;;;;;;;5.46;72.51;101069.84;5377006;26;20680;-69
2024/04/09 04:24:15;;;;;;;4.83;2.50;;;;;;;5.47;72.61;101062.91;5382134;26;20234;-68
2024/04/09 04:26:40;;;;;;;3.57;2.10;;;;;;;5.48;71.82;101064.63;5381919;26;20218;-69
2024/04/09 04:29:10;;;;;;;3.10;2.20;;;;;;;5.49;72.34;101061.19;5381965;26;20222;-69
2024/04/09 04:31:36;;;;;;;2.00;1.80;;;;;;;5.50;72.17;101073.31;5381789;26;20831;-69
2024/04/09 04:34:08;;;;;;;4.63;2.33;;;;;;;5.49;72.24;101074.19;5381996;26;20348;-68
2024/04/09 04:36:33;;;;;;;4.47;2.37;;;;;;;5.50;71.90;101078.50;5381726;26;20230;-69
2024/04/09 04:39:03;;;;;;;3.50;2.03;;;;;;;5.50;71.92;101084.53;5381772;26;20245;-72
2024/04/09 04:41:29;;;;;;;2.97;2.10;;;;;;;5.49;72.05;101080.22;5381728;26;20753;-71
2024/04/09 04:43:58;;;;;;;5.07;2.53;;;;;;;5.49;72.41;101082.81;5321677;26;20263;-70
2024/04/09 04:46:24;;;;;;;3.37;2.10;;;;;;;5.50;72.42;101084.53;5334279;26;20219;-70
2024/04/09 04:48:52;;;;;;;4.70;2.27;;;;;;;5.50;72.41;101094.06;5346774;26;20352;-71
2024/04/09 04:51:21;;;;;;;3.77;2.33;;;;;;;5.50;72.17;101100.13;5346706;26;20354;-72
2024/04/09 04:53:49;;;;;;;2.77;2.07;;;;;;;5.50;72.23;101094.94;5346833;26;20235;-71
2024/04/09 04:56:15;;;;;;;4.00;2.33;;;;;;;5.50;72.57;101091.47;5346728;26;20302;-72
2024/04/09 04:58:44;;;;;;;3.53;2.20;;;;;;;5.51;72.13;101099.25;5346629;26;20234;-71
2024/04/09 05:01:10;;;;;;;2.40;1.97;;;;;;;5.52;72.32;101108.78;5338444;26;20220;-69
2024/04/09 05:03:39;;;;;;;3.30;2.00;;;;;;;5.53;72.78;101115.69;5346681;26;20333;-69
2024/04/09 05:06:06;;;;;;;2.07;1.87;;;;;;;5.55;72.19;101130.44;5339620;26;20260;-69
2024/04/09 05:08:37;;;;;;;3.60;2.27;;;;;;;5.53;72.26;101120.88;5344800;26;20246;-69
2024/04/09 05:11:09;;;;;;;3.50;2.10;;;;;;;5.54;72.36;101129.53;5336865;26;20844;-69
2024/04/09 05:13:38;;;;;;;3.37;2.17;;;;;;;5.55;72.68;101130.44;5346422;26;20223;-69
2024/04/09 05:16:04;;;;;;;2.30;1.77;;;;;;;5.55;72.65;101128.69;5343565;26;20231;-69
2024/04/09 05:18:33;;;;;;;2.53;1.97;;;;;;;5.56;72.99;101126.97;5346463;26;20223;-69
2024/04/09 05:20:59;;;;;;;2.93;2.20;;;;;;;5.57;72.90;101134.75;5346206;26;20345;-71
2024/04/09 05:23:27;;;;;;;3.03;2.00;;;;;;;5.58;72.70;101133.03;5346284;26;20223;-72
2024/04/09 05:25:56;;;;;;;2.70;2.00;;;;;;;5.59;72.92;101130.44;5339894;26;20246;-71
2024/04/09 05:28:24;;;;;;;3.90;2.17;;;;;;;5.60;72.73;101126.09;5346091;26;20345;-71
2024/04/09 05:30:50;;;;;;;2.27;1.73;;;;;;;5.62;72.71;101134.78;5345986;26;20306;-71
2024/04/09 05:33:19;;;;;;;3.27;1.93;;;;;;;5.61;72.88;101139.09;5346103;26;20713;-71
2024/04/09 05:35:45;;;;;;;3.17;1.90;;;;;;;5.62;73.17;101139.97;5336081;26;20282;-71
2024/04/09 05:38:13;;;;;;;3.53;2.47;;;;;;;5.64;73.09;101143.44;5345936;26;20350;-71
2024/04/09 05:40:39;;;;;;;4.93;2.50;;;;;;;5.65;72.82;101146.03;5346035;26;20337;-71
2024/04/09 05:43:10;;;;;;;2.07;1.87;;;;;;;5.66;72.96;101139.09;5346018;26;20223;-71
2024/04/09 05:45:36;;;;;;;4.60;2.27;;;;;;;5.68;72.78;101147.75;5345889;26;20385;-71
2024/04/09 05:48:05;;;;;;;2.30;2.07;;;;;;;5.68;73.23;101140.84;5345948;26;20652;-72
2024/04/09 05:50:32;;;;;;;4.13;2.47;;;;;;;5.69;72.79;101152.13;5345842;26;20271;-71
2024/04/09 05:53:00;;;;;;;3.10;2.33;;;;;;;5.69;73.35;101155.56;5348072;26;20273;-71
2024/04/09 05:55:26;;;;;;;4.20;2.37;;;;;;;5.71;72.84;101153.81;5349233;26;20235;-71
2024/04/09 05:57:54;;;;;;;3.13;2.40;;;;;;;5.71;73.16;101145.19;5349195;26;20658;-71
2024/04/09 06:00:23;;;;;;;3.00;2.30;;;;;;;5.72;73.42;101132.22;5342852;26;20403;-70
2024/04/09 06:02:53;;;;;;;3.27;2.20;;;;;;;5.73;73.18;101130.47;5344520;26;20239;-70
2024/04/09 06:05:20;;;;;;;4.53;2.30;;;;;;;5.73;73.54;101133.06;5349165;26;20222;-71
2024/04/09 06:07:49;;;;;;;2.43;1.80;;;;;;;5.75;73.55;101139.16;5349150;26;20223;-71
2024/04/09 06:10:17;;;;;;;3.70;2.20;;;;;;;5.77;73.48;101137.41;5349562;26;20674;-70
2024/04/09 06:12:46;;;;;;;2.87;2.07;;;;;;;5.77;73.31;101134.81;5342678;26;20227;-70
2024/04/09 06:15:12;;;;;;;4.40;2.10;;;;;;;5.79;73.38;101133.09;5348876;26;20712;-70
2024/04/09 06:17:43;;;;;;;5.33;2.20;;;;;;;5.82;73.84;101127.03;5348629;26;20219;-70
2024/04/09 06:20:10;;;;;;;3.23;2.30;;;;;;;5.82;73.92;101130.50;5348801;26;20762;-70
2024/04/09 06:22:38;;;;;;;2.70;2.27;;;;;;;5.85;73.78;101124.44;5348721;26;20271;-70
2024/04/09 06:25:04;;;;;;;2.63;2.33;;;;;;;5.87;73.90;101110.59;5349011;26;20348;-70
2024/04/09 06:27:33;;;;;;;3.80;2.17;;;;;;;5.90;74.19;101110.59;5348736;26;20261;-70
2024/04/09 06:29:59;;;;;;;3.00;2.50;;;;;;;5.91;74.39;101109.72;5348465;26;20348;-70
2024/04/09 06:32:27;;;;;;;4.00;2.30;;;;;;;5.95;74.08;101113.22;5349021;26;20227;-70
2024/04/09 06:34:56;;;;;;;4.23;2.40;;;;;;;5.97;73.80;101122.75;5344557;26;20287;-70
2024/04/09 06:37:25;;;;;;;6.27;3.17;;;;;;;5.98;74.17;101128.81;5340625;26;20285;-70
2024/04/09 06:39:51;;;;;;;4.47;3.20;;;;;;;6.01;74.30;101143.53;5348378;26;20231;-70
2024/04/09 06:42:19;;;;;;;4.17;3.03;;;;;;;6.03;74.55;101152.19;5348426;26;20317;-70
2024/04/09 06:44:46;;;;;;;4.90;2.30;;;;;;;6.07;74.32;101151.34;5348536;26;20215;-70
2024/04/09 06:47:14;;;;;;;3.57;2.30;;;;;;;6.08;74.03;101127.09;5348547;26;20226;-70
2024/04/09 06:49:43;;;;;;;4.87;2.73;;;;;;;6.13;74.77;101117.56;5345243;26;20230;-68
2024/04/09 06:52:14;;;;;;;3.40;2.77;;;;;;;6.18;75.05;101129.72;5341491;26;20758;-68
2024/04/09 06:54:40;;;;;;;4.60;2.57;;;;;;;6.21;74.80;101139.25;5341204;26;20330;-68
2024/04/09 06:57:08;;;;;;;5.07;2.77;;;;;;;6.25;75.07;101127.13;5348574;26;20708;-68
2024/04/09 06:59:34;;;;;;;4.90;2.63;;;;;;;6.31;75.05;101116.72;5348403;26;20353;-72
2024/04/09 07:02:03;;;;;;;5.17;2.50;;;;;;;6.35;75.26;101110.66;5348162;26;20733;-72
2024/04/09 07:04:32;;;;;;;7.60;3.60;;;;;;;6.41;76.28;101118.47;5348042;26;20219;-73
2024/04/09 07:06:58;;;;;;;7.77;3.30;;;;;;;6.48;76.16;101114.13;5348191;26;20286;-72
2024/04/09 07:09:29;;;;;;;6.63;3.07;;;;;;;6.56;75.94;101117.59;5348136;26;20821;-72
2024/04/09 07:11:55;;;;;;;6.00;3.20;;;;;;;6.63;76.16;101117.59;5345047;26;20340;-72
2024/04/09 07:14:23;;;;;;;6.97;3.23;;;;;;;6.69;76.19;101128.88;5347058;26;20243;-73
2024/04/09 07:16:49;;;;;;;8.87;3.53;;;;;;;6.78;76.29;101119.28;5348295;26;20219;-70
2024/04/09 07:19:18;;;;;;;5.47;3.27;;;;;;;6.88;76.89;101123.63;5348486;26;20230;-74
2024/04/09 07:21:44;;;;;;;10.00;2.80;;;;;;;6.98;76.88;101121.00;5348019;26;20279;-74
2024/04/09 07:24:12;;;;;;;6.33;2.40;;;;;;;7.04;76.64;101111.44;5348150;26;20338;-74
2024/04/09 07:26:41;;;;;;;4.73;2.93;;;;;;;7.21;76.68;101119.19;5347994;26;20238;-74
2024/04/09 07:29:10;;;;;;;7.43;2.97;;;;;;;7.32;76.78;101122.63;5347981;26;20273;-74
2024/04/09 07:31:36;;;;;;;5.47;2.60;;;;;;;7.48;76.64;101126.09;5347652;26;20389;-75
2024/04/09 07:34:05;;;;;;;4.17;2.60;;;;;;;7.63;76.26;101127.75;5347739;26;20223;-75
2024/04/09 07:36:31;;;;;;;3.83;2.43;;;;;;;7.74;76.63;101130.31;5347614;26;20262;-75
2024/04/09 07:39:00;;;;;;;6.57;2.47;;;;;;;7.88;76.52;101130.19;5347864;26;20285;-74
2024/04/09 07:41:26;;;;;;;5.73;2.30;;;;;;;8.01;76.23;101137.09;5347766;26;20255;-75
2024/04/09 07:43:58;;;;;;;6.37;2.60;;;;;;;8.14;76.23;101130.06;5347603;26;20314;-75
2024/04/09 07:46:24;;;;;;;4.13;2.10;;;;;;;8.34;76.04;101127.31;5347741;26;20240;-75
2024/04/09 07:48:53;;;;;;;4.27;1.80;;;;;;;8.59;75.56;101122.72;5347899;26;20346;-75
2024/04/09 07:51:19;;;;;;;9.17;2.60;;;;;;;8.84;75.34;101128.59;5342568;26;20297;-73
2024/04/09 07:53:47;;;;;;;7.77;3.20;;;;;;;9.04;74.96;101124.03;5347790;26;20571;-74
2024/04/09 07:56:13;;;;;;;5.63;2.00;;;;;;;9.26;74.75;101116.84;5335006;26;20229;-73
2024/04/09 07:58:42;;;;;;;9.03;2.43;;;;;;;9.48;73.77;101114.88;5341488;26;20275;-73
2024/04/09 08:01:11;;;;;;;8.37;2.10;;;;;;;9.72;73.85;101115.41;5344618;26;20249;-73
2024/04/09 08:03:40;;;;;;;7.90;1.93;;;;;;;9.89;73.59;101118.66;5336919;26;20342;-76
2024/04/09 08:06:06;;;;;;;5.73;2.03;;;;;;;10.06;73.31;101114.94;5348033;26;20223;-76
2024/04/09 08:08:35;;;;;;;4.83;1.93;;;;;;;10.21;72.89;101119.91;5347416;26;20231;-76
2024/04/09 08:11:07;;;;;;;10.30;2.40;;;;;;;10.35;72.98;101114.47;5347149;26;20715;-77
2024/04/09 08:13:35;;;;;;;6.60;1.93;;;;;;;10.50;72.49;101106.41;5347296;26;20219;-76
2024/04/09 08:16:01;;;;;;;6.30;2.00;;;;;;;10.61;72.15;101109.69;5346535;26;20269;-76
2024/04/09 08:18:32;;;;;;;4.83;1.80;;;;;;;10.81;71.77;101114.56;5347389;26;20234;-76
2024/04/09 08:21:00;;;;;;;6.43;2.10;;;;;;;10.93;71.77;101109.13;5341103;26;20222;-76
2024/04/09 08:23:29;;;;;;;4.73;1.87;;;;;;;11.04;71.31;101118.53;5347677;26;20222;-79
2024/04/09 08:25:55;;;;;;;5.77;1.90;;;;;;;11.19;71.39;101120.88;5346365;26;20313;-77
2024/04/09 08:28:23;;;;;;;5.63;1.73;;;;;;;11.28;71.30;101125.91;5347388;26;20235;-77
2024/04/09 08:30:50;;;;;;;6.57;1.53;;;;;;;11.38;71.30;101124.00;5347132;26;20235;-71
2024/04/09 08:33:20;;;;;;;6.60;2.20;;;;;;;11.46;71.17;101122.06;5345244;26;20219;-72
2024/04/09 08:35:49;;;;;;;7.53;2.37;;;;;;;11.57;70.42;101127.06;5340895;26;20227;-72
2024/04/09 08:38:20;;;;;;;4.63;2.40;;;;;;;11.65;70.44;101121.69;5346886;26;20557;-72
2024/04/09 08:40:46;;;;;;;6.07;2.10;;;;;;;11.76;70.60;101130.19;5346892;26;20227;-72
2024/04/09 08:43:16;;;;;;;4.70;1.70;;;;;;;11.82;69.85;101119.56;5344339;26;20235;-72
2024/04/09 08:45:43;;;;;;;6.37;1.77;;;;;;;11.92;68.82;101125.44;5347060;26;20263;-71
2024/04/09 08:48:13;;;;;;;5.63;1.90;;;;;;;11.98;69.20;101120.09;5346965;26;20328;-72
2024/04/09 08:50:44;;;;;;;8.00;1.80;;;;;;;12.09;68.69;101132.94;5336089;26;20235;-72
2024/04/09 08:53:16;;;;;;;4.53;1.87;;;;;;;12.16;68.66;101130.13;5346839;26;20791;-72
2024/04/09 08:55:42;;;;;;;6.70;1.93;;;;;;;12.23;68.73;101129.09;5342350;26;20276;-73
2024/04/09 08:58:12;;;;;;;4.80;1.67;;;;;;;12.30;68.06;101129.00;5346322;26;20338;-71
2024/04/09 09:00:38;;;;;;;7.03;1.83;;;;;;;12.37;67.53;101127.91;5346617;26;20219;-71
2024/04/09 09:03:07;;;;;;;5.07;1.87;;;;;;;12.43;67.61;101117.28;5346991;26;20326;-71
2024/04/09 09:05:33;;;;;;;3.77;2.00;;;;;;;12.49;67.05;101123.25;5343123;26;20225;-70
2024/04/09 09:08:03;;;;;;;4.47;1.57;;;;;;;12.53;66.71;101124.03;5346584;26;20223;-71
2024/04/09 09:10:33;;;;;;;4.07;1.87;;;;;;;12.61;67.21;101126.47;5346564;26;20406;-72
2024/04/09 09:13:02;;;;;;;5.50;1.63;;;;;;;12.66;66.90;101120.19;5346888;26;20221;-72
2024/04/09 09:15:28;;;;;;;5.00;1.70;;;;;;;12.72;66.22;101120.03;5346403;26;20220;-72
2024/04/09 09:17:57;;;;;;;6.50;1.47;;;;;;;12.76;66.02;101118.19;5346548;26;20227;-72
2024/04/09 09:20:23;;;;;;;5.33;1.87;;;;;;;12.85;66.35;101117.06;5340979;26;20295;-70
2024/04/09 09:22:54;;;;;;;5.10;1.60;;;;;;;12.90;65.65;101121.31;5346616;26;20262;-69
2024/04/09 09:25:22;;;;;;;5.17;1.63;;;;;;;12.97;65.52;101124.63;5339948;26;20229;-71
2024/04/09 09:28:07;;;;;;;3.83;1.90;;;;;;;13.01;65.86;101121.03;5346208;26;20225;-71
2024/04/09 09:30:40;;;;;;;5.53;2.00;;;;;;;13.07;65.75;101126.09;5342140;26;20244;-78
2024/04/09 09:33:16;;;;;;;5.17;1.90;;;;;;;13.12;64.97;101124.22;5346191;26;20222;-76
2024/04/09 09:35:46;;;;;;;5.30;1.70;;;;;;;13.14;65.08;101122.41;5346170;26;20229;-74
2024/04/09 09:38:17;;;;;;;5.67;1.77;;;;;;;13.21;64.92;101125.72;5337852;26;20333;-75
2024/04/09 09:40:46;;;;;;;5.47;2.07;;;;;;;13.27;64.68;101136.06;5346041;26;20234;-76
2024/04/09 09:43:19;;;;;;;3.83;1.50;;;;;;;13.33;63.92;101124.53;5346100;26;20262;-76
2024/04/09 09:45:45;;;;;;;5.13;1.57;;;;;;;13.37;63.63;101124.41;5340867;26;20274;-76
2024/04/09 09:48:15;;;;;;;6.20;1.80;;;;;;;13.42;63.36;101132.13;5345927;26;20229;-76
2024/04/09 09:50:42;;;;;;;4.33;1.77;;;;;;;13.50;62.71;101131.91;5345773;26;20232;-76
2024/04/09 09:53:11;;;;;;;2.93;1.63;;;;;;;13.55;62.49;101133.53;5345601;26;20220;-76
2024/04/09 09:55:39;;;;;;;3.83;1.77;;;;;;;13.63;62.47;101141.22;5345750;26;20361;-76
2024/04/09 09:58:10;;;;;;;7.07;1.73;;;;;;;13.67;61.83;101132.31;5346304;26;20577;-76
2024/04/09 10:00:41;;;;;;;4.27;1.53;;;;;;;13.77;61.49;101139.03;5343891;26;20300;-76
2024/04/09 10:03:10;;;;;;;4.40;1.40;;;;;;;13.83;59.93;101135.38;5345535;26;20238;-76
2024/04/09 10:05:39;;;;;;;4.27;1.50;;;;;;;13.89;60.00;101135.16;5345611;26;20332;-76
2024/04/09 10:08:17;;;;;;;3.50;1.50;;;;;;;13.92;59.66;101132.44;5345283;26;20560;-75
2024/04/09 10:10:43;;;;;;;6.87;1.93;;;;;;;14.00;59.57;101140.09;5345487;26;20288;-76
2024/04/09 10:13:13;;;;;;;4.37;1.57;;;;;;;14.00;59.43;101129.59;5345277;26;20233;-76
2024/04/09 10:15:48;;;;;;;5.80;1.60;;;;;;;14.06;59.58;101135.50;5345596;26;20804;-76
2024/04/09 10:18:30;;;;;;;5.47;1.60;;;;;;;14.12;60.14;101141.50;5345297;26;20714;-76
2024/04/09 10:20:56;;;;;;;7.27;1.90;;;;;;;14.15;59.81;101144.88;5345427;26;20278;-76
2024/04/09 10:23:25;;;;;;;7.13;1.80;;;;;;;14.18;59.25;101142.16;5341454;26;20233;-75
2024/04/09 10:25:57;;;;;;;6.37;2.00;;;;;;;14.20;58.86;101137.72;5345343;26;20262;-76
2024/04/09 10:28:30;;;;;;;5.73;1.80;;;;;;;14.23;59.19;101134.13;5338708;26;20223;-76
2024/04/09 10:31:03;;;;;;;4.47;1.30;;;;;;;14.26;58.55;101134.03;5343105;26;20294;-76
2024/04/09 10:33:34;;;;;;;6.83;1.40;;;;;;;14.24;58.54;101127.94;5345266;26;20231;-76
2024/04/09 10:36:03;;;;;;;3.90;1.20;;;;;;;14.31;58.16;101129.44;5344664;26;20222;-76
2024/04/09 10:38:33;;;;;;;6.03;1.73;;;;;;;14.35;58.33;101144.25;5347166;26;20219;-76
2024/04/09 10:41:00;;;;;;;4.27;1.33;;;;;;;14.37;58.08;101134.53;5349026;26;20231;-71
2024/04/09 10:43:29;;;;;;;8.70;1.57;;;;;;;14.40;58.22;101133.56;5348838;26;20340;-71
2024/04/09 10:45:56;;;;;;;7.17;1.70;;;;;;;14.43;57.58;101130.84;5349036;26;20238;-71
2024/04/09 10:48:28;;;;;;;6.37;1.47;;;;;;;14.43;57.35;101131.69;5348798;26;20285;-72
2024/04/09 10:50:54;;;;;;;4.40;1.60;;;;;;;14.40;56.90;101129.16;5348819;26;20357;-75
2024/04/09 10:53:23;;;;;;;6.23;1.53;;;;;;;14.41;57.45;101122.97;5344005;26;20286;-75
2024/04/09 10:55:49;;;;;;;9.67;2.03;;;;;;;14.39;57.57;101122.16;5348602;26;20280;-75
2024/04/09 10:58:19;;;;;;;5.70;1.53;;;;;;;14.38;57.19;101130.97;5345312;26;20575;-72
2024/04/09 11:00:51;;;;;;;8.10;1.40;;;;;;;14.36;57.21;101127.53;5348786;26;20703;-74
2024/04/09 11:03:22;;;;;;;4.57;1.40;;;;;;;14.34;57.33;101137.25;5348385;26;20726;-74
2024/04/09 11:05:51;;;;;;;6.37;1.43;;;;;;;14.37;57.09;101137.16;5347552;26;20226;-74
2024/04/09 11:08:30;;;;;;;2.83;1.47;;;;;;;14.38;57.70;101130.13;5348548;26;20271;-74
2024/04/09 11:10:56;;;;;;;3.77;1.27;;;;;;;14.28;57.63;101119.00;5347752;26;20818;-75
2024/04/09 11:13:25;;;;;;;7.07;1.40;;;;;;;14.36;57.06;101145.94;5348398;26;20297;-76
2024/04/09 11:15:52;;;;;;;6.50;1.40;;;;;;;14.30;57.51;101128.59;5348386;26;20231;-77
2024/04/09 11:18:23;;;;;;;3.53;1.40;;;;;;;14.37;57.36;101131.00;5348822;26;20272;-77
2024/04/09 11:20:56;;;;;;;6.07;1.60;;;;;;;14.37;56.99;101129.28;5348220;26;20253;-74
2024/04/09 11:23:26;;;;;;;9.30;1.80;;;;;;;14.38;56.84;101135.38;5348013;26;20334;-76
2024/04/09 11:25:53;;;;;;;4.10;1.33;;;;;;;14.38;57.39;101136.25;5347515;26;20230;-73
2024/04/09 11:28:22;;;;;;;4.43;2.00;;;;;;;14.39;57.41;101131.84;5341440;26;20857;-74
2024/04/09 11:30:50;;;;;;;5.47;1.50;;;;;;;14.40;57.65;101129.16;5347927;26;20231;-73
2024/04/09 11:33:20;;;;;;;6.37;1.40;;;;;;;14.39;57.51;101126.56;5348482;26;20227;-75
2024/04/09 11:35:52;;;;;;;1.40;1.30;;;;;;;14.41;57.30;101135.28;5348195;26;20261;-72
2024/04/09 11:38:24;;;;;;;7.03;1.70;;;;;;;14.41;57.31;101135.28;5348561;26;20226;-73